createdAt,value
2019-01-18T00:02:58.254Z,4.53
2019-01-18T00:08:02.964Z,7.60
2019-01-18T00:13:07.662Z,7.37
2019-01-18T00:18:12.561Z,5.73
2019-01-18T00:23:17.312Z,6.77
2019-01-18T00:28:22.209Z,7.53
2019-01-18T00:33:27.196Z,6.57
2019-01-18T00:38:32.007Z,4.47
2019-01-18T00:43:36.771Z,4.50
2019-01-18T00:48:41.435Z,5.57
2019-01-18T00:53:46.137Z,5.63
2019-01-18T00:58:50.821Z,2.63
2019-01-18T01:03:55.563Z,4.20
2019-01-18T01:09:00.325Z,5.30
2019-01-18T01:14:05.133Z,3.43
2019-01-18T01:19:09.793Z,2.58
2019-01-18T01:24:14.689Z,1.20
2019-01-18T01:29:19.400Z,3.35
2019-01-18T01:34:24.083Z,1.40
2019-01-18T01:39:28.760Z,2.13
2019-01-18T01:44:33.535Z,1.40
2019-01-18T01:49:38.227Z,1.73
2019-01-18T01:54:43.111Z,1.87
2019-01-18T01:59:49.918Z,3.20
2019-01-18T02:04:54.319Z,3.23
2019-01-18T02:09:59.036Z,1.97
2019-01-18T02:15:05.390Z,2.67
2019-01-18T02:20:13.064Z,4.70
2019-01-18T02:25:17.988Z,1.87
2019-01-18T02:30:31.325Z,1.90
2019-01-18T02:35:36.164Z,6.83
2019-01-18T02:40:40.786Z,2.67
2019-01-18T02:45:45.769Z,3.60
2019-01-18T02:50:50.821Z,2.03
2019-01-18T02:55:55.499Z,2.77
2019-01-18T03:01:00.156Z,1.67
2019-01-18T03:06:04.955Z,2.20
2019-01-18T03:11:09.621Z,3.37
2019-01-18T03:16:14.365Z,2.55
2019-01-18T03:21:19.362Z,2.02
2019-01-18T03:26:24.011Z,2.73
2019-01-18T03:31:28.751Z,5.43
2019-01-18T03:36:33.412Z,4.93
2019-01-18T03:41:39.307Z,4.77
2019-01-18T03:46:43.986Z,5.63
2019-01-18T03:51:48.655Z,3.63
2019-01-18T03:56:53.385Z,6.93
2019-01-18T04:01:58.060Z,3.03
2019-01-18T04:07:02.718Z,2.73
2019-01-18T04:12:07.451Z,5.03
2019-01-18T04:17:12.217Z,2.97
2019-01-18T04:22:16.881Z,4.07
2019-01-18T04:27:21.549Z,3.90
2019-01-18T04:32:26.296Z,5.07
2019-01-18T04:37:30.972Z,2.53
2019-01-18T04:42:35.631Z,2.53
2019-01-18T04:47:40.565Z,5.53
2019-01-18T04:52:45.984Z,2.13
2019-01-18T04:57:50.867Z,1.57
2019-01-18T05:02:55.724Z,7.83
2019-01-18T05:08:00.731Z,6.57
2019-01-18T05:13:05.534Z,4.43
2019-01-18T05:18:10.274Z,2.57
2019-01-18T05:23:15.000Z,3.53
2019-01-18T05:28:19.660Z,6.73
2019-01-18T05:33:24.310Z,5.63
2019-01-18T05:38:28.960Z,7.10
2019-01-18T05:43:33.624Z,1.80
2019-01-18T05:48:38.300Z,4.40
2019-01-18T05:53:43.288Z,2.53
2019-01-18T05:58:47.948Z,1.33
2019-01-18T06:03:52.659Z,1.47
2019-01-18T06:08:58.444Z,2.33
2019-01-18T06:14:03.191Z,1.43
2019-01-18T06:19:08.056Z,1.77
2019-01-18T06:24:12.796Z,1.23
2019-01-18T06:29:17.543Z,3.47
2019-01-18T06:34:22.461Z,1.67
2019-01-18T06:39:27.202Z,1.80
2019-01-18T06:44:31.889Z,2.23
2019-01-18T06:49:36.675Z,2.60
2019-01-18T06:54:41.525Z,2.37
2019-01-18T06:59:46.391Z,3.03
2019-01-18T07:04:51.063Z,3.67
2019-01-18T07:09:55.841Z,1.67
2019-01-18T07:15:00.617Z,1.73
2019-01-18T07:20:06.255Z,1.40
2019-01-18T07:25:19.355Z,1.30
2019-01-18T07:30:32.331Z,3.60
2019-01-18T07:35:37.147Z,0.90
2019-01-18T07:40:41.975Z,1.67
2019-01-18T07:45:46.833Z,1.67
2019-01-18T07:50:51.709Z,1.90
2019-01-18T07:55:56.413Z,1.37
2019-01-18T08:01:01.147Z,0.80
2019-01-18T08:06:07.229Z,2.90
2019-01-18T08:11:12.200Z,1.80
2019-01-18T08:16:16.982Z,0.95
2019-01-18T08:21:21.692Z,2.00
2019-01-18T08:26:26.392Z,4.07
2019-01-18T08:31:31.123Z,2.70
2019-01-18T08:36:35.896Z,3.63
2019-01-18T08:41:40.600Z,3.40
2019-01-18T08:46:45.337Z,2.10
2019-01-18T08:51:49.999Z,2.30
2019-01-18T08:56:54.678Z,4.20
2019-01-18T09:01:59.340Z,3.27
2019-01-18T09:07:04.488Z,3.40
2019-01-18T09:12:09.176Z,2.17
2019-01-18T09:17:13.820Z,5.63
2019-01-18T09:22:18.490Z,4.60
2019-01-18T09:27:23.182Z,3.43
2019-01-18T09:32:27.880Z,4.40
2019-01-18T09:37:32.762Z,5.50
2019-01-18T09:42:37.468Z,5.40
2019-01-18T09:47:42.532Z,3.40
2019-01-18T09:52:47.535Z,6.70
2019-01-18T09:57:53.355Z,6.47
2019-01-18T10:02:58.861Z,5.90
2019-01-18T10:08:06.477Z,4.10
2019-01-18T10:13:11.161Z,4.70
2019-01-18T10:18:16.311Z,6.23
2019-01-18T10:23:21.115Z,3.97
2019-01-18T10:28:27.849Z,4.93
2019-01-18T10:33:32.604Z,2.37
2019-01-18T10:38:37.276Z,4.77
2019-01-18T10:43:42.012Z,4.60
2019-01-18T10:48:46.675Z,4.80
2019-01-18T10:53:51.350Z,5.93
2019-01-18T10:59:07.779Z,5.30
2019-01-18T11:04:12.494Z,2.53
2019-01-18T11:09:17.277Z,3.40
2019-01-18T11:14:21.967Z,5.97
2019-01-18T11:19:26.738Z,4.20
2019-01-18T11:24:31.403Z,5.47
2019-01-18T11:29:36.113Z,4.93
2019-01-18T11:34:40.793Z,3.03
2019-01-18T11:39:45.475Z,4.20
2019-01-18T11:44:50.242Z,5.47
2019-01-18T11:49:54.996Z,5.87
2019-01-18T11:54:59.674Z,2.57
2019-01-18T12:00:07.406Z,3.45
2019-01-18T12:05:13.186Z,4.53
2019-01-18T12:10:23.258Z,5.78
2019-01-18T12:15:29.095Z,3.77
2019-01-18T12:20:35.748Z,4.00
2019-01-18T12:25:40.536Z,4.60
2019-01-18T12:30:45.284Z,7.00
2019-01-18T12:35:50.229Z,5.23
2019-01-18T12:40:54.917Z,5.17
2019-01-18T12:45:59.599Z,2.43
2019-01-18T12:51:04.816Z,4.57
2019-01-18T12:56:09.576Z,4.20
2019-01-18T13:01:14.342Z,9.38
2019-01-18T13:06:19.168Z,3.73
2019-01-18T13:11:23.981Z,2.63
2019-01-18T13:16:32.673Z,4.87
2019-01-18T13:21:37.334Z,3.47
2019-01-18T13:26:41.993Z,2.97
2019-01-18T13:31:46.810Z,4.37
2019-01-18T13:36:51.557Z,4.63
2019-01-18T13:41:56.264Z,2.57
2019-01-18T13:47:01.065Z,4.17
2019-01-18T13:52:06.013Z,7.80
2019-01-18T13:57:12.267Z,4.90
2019-01-18T14:02:17.127Z,2.13
2019-01-18T14:07:21.890Z,4.60
2019-01-18T14:12:26.665Z,2.80
2019-01-18T14:17:31.336Z,6.20
2019-01-18T14:22:36.185Z,4.17
2019-01-18T14:27:40.995Z,4.90
2019-01-18T14:32:45.678Z,4.53
2019-01-18T14:37:50.925Z,4.07
2019-01-18T14:42:55.648Z,8.60
2019-01-18T14:48:00.711Z,5.13
2019-01-18T14:53:05.673Z,2.93
2019-01-18T14:58:12.881Z,2.57
2019-01-18T15:03:17.781Z,2.90
2019-01-18T15:08:24.356Z,4.43
2019-01-18T15:13:28.828Z,6.47
2019-01-18T15:18:33.567Z,6.57
2019-01-18T15:23:38.312Z,7.43
2019-01-18T15:28:42.943Z,6.87
2019-01-18T15:33:47.780Z,5.15
2019-01-18T15:38:53.460Z,5.57
2019-01-18T15:43:58.179Z,6.80
2019-01-18T15:49:02.924Z,6.33
2019-01-18T15:54:08.450Z,10.82
2019-01-18T15:59:13.151Z,6.60
2019-01-18T16:04:17.916Z,7.33
2019-01-18T16:09:22.883Z,5.07
2019-01-18T16:14:27.581Z,8.50
2019-01-18T16:19:32.293Z,6.43
2019-01-18T16:24:37.118Z,8.93
2019-01-18T16:29:41.791Z,7.10
2019-01-18T16:34:46.767Z,7.10
2019-01-18T16:39:51.455Z,4.23
2019-01-18T16:44:56.255Z,6.90
2019-01-18T16:50:01.190Z,8.40
2019-01-18T16:55:06.890Z,8.60
2019-01-18T17:00:23.701Z,8.83
2019-01-18T17:05:28.717Z,5.53
2019-01-18T17:10:33.389Z,8.17
2019-01-18T17:15:38.451Z,6.63
2019-01-18T17:20:44.116Z,7.07
2019-01-18T17:25:48.771Z,5.47
2019-01-18T17:30:53.436Z,4.37
2019-01-18T17:36:09.143Z,7.57
2019-01-18T17:41:32.019Z,12.77
2019-01-18T17:47:27.910Z,8.67
2019-01-18T17:53:28.323Z,9.00
2019-01-18T17:59:07.999Z,9.60
2019-01-18T18:04:53.950Z,10.77
2019-01-18T18:10:41.724Z,11.83
2019-01-18T18:16:10.068Z,6.13
2019-01-18T18:21:35.834Z,9.43
2019-01-18T18:27:23.669Z,6.83
2019-01-18T18:33:07.640Z,10.97
2019-01-18T18:38:56.404Z,4.87
2019-01-18T18:44:44.978Z,5.87
2019-01-18T18:50:43.468Z,7.43
2019-01-18T18:56:08.734Z,10.90
2019-01-18T19:01:46.776Z,8.63
2019-01-18T19:07:08.837Z,7.53
2019-01-18T19:12:42.270Z,15.60
2019-01-18T19:18:25.138Z,9.00
2019-01-18T19:24:05.196Z,9.63
2019-01-18T19:29:29.745Z,5.37
2019-01-18T19:34:51.472Z,7.47
2019-01-18T19:40:15.890Z,9.00
2019-01-18T19:45:45.285Z,11.85
2019-01-18T19:51:16.288Z,8.67
2019-01-18T19:56:35.122Z,7.47
2019-01-18T20:02:03.715Z,10.53
2019-01-18T20:07:29.823Z,11.83
2019-01-18T20:13:12.695Z,10.90
2019-01-18T20:18:43.394Z,14.53
2019-01-18T20:24:17.632Z,9.87
2019-01-18T20:29:58.387Z,6.78
2019-01-18T20:35:49.016Z,9.30
2019-01-18T20:41:31.489Z,8.60
2019-01-18T20:47:12.714Z,13.70
2019-01-18T20:52:54.996Z,14.40
2019-01-18T20:59:15.011Z,15.73
2019-01-18T21:04:55.425Z,9.15
2019-01-18T21:10:39.207Z,11.67
2019-01-18T21:16:13.813Z,7.17
2019-01-18T21:21:47.682Z,11.87
2019-01-18T21:27:50.242Z,11.57
2019-01-18T21:33:48.593Z,10.07
2019-01-18T21:39:29.859Z,16.03
2019-01-18T21:45:11.537Z,11.47
2019-01-18T21:50:52.203Z,11.63
2019-01-18T21:56:29.301Z,15.27
2019-01-18T22:02:30.243Z,9.10
2019-01-18T22:07:57.615Z,11.83
2019-01-18T22:13:24.009Z,11.27
2019-01-18T22:19:05.866Z,8.83
2019-01-18T22:24:57.305Z,7.43
2019-01-18T22:30:34.546Z,9.87
2019-01-18T22:36:30.914Z,7.60
2019-01-18T22:42:24.759Z,8.07
2019-01-18T22:48:19.327Z,7.10
2019-01-18T22:53:55.919Z,9.33
2019-01-18T22:59:28.898Z,11.60
2019-01-18T23:04:57.669Z,7.53
2019-01-18T23:10:32.039Z,6.93
2019-01-18T23:16:16.693Z,8.17
2019-01-18T23:21:55.826Z,10.63
2019-01-18T23:27:28.857Z,6.77
2019-01-18T23:33:12.004Z,8.00
2019-01-18T23:38:56.755Z,7.40
2019-01-18T23:44:26.192Z,9.80
2019-01-18T23:49:55.509Z,9.43
2019-01-18T23:55:49.949Z,7.00
